createdAt,value
2023-10-29T00:00:34.329Z,4.63
2023-10-29T00:03:03.202Z,4.83
2023-10-29T00:05:32.140Z,5.00
2023-10-29T00:08:00.895Z,5.77
2023-10-29T00:10:28.831Z,4.17
2023-10-29T00:12:56.824Z,3.80
2023-10-29T00:15:24.675Z,4.53
2023-10-29T00:17:53.149Z,3.80
2023-10-29T00:20:21.188Z,3.53
2023-10-29T00:22:49.677Z,4.30
2023-10-29T00:25:18.344Z,4.07
2023-10-29T00:27:46.901Z,4.20
2023-10-29T00:30:15.610Z,4.07
2023-10-29T00:32:44.041Z,3.80
2023-10-29T00:35:12.571Z,3.97
2023-10-29T00:37:41.040Z,4.03
2023-10-29T00:40:10.999Z,4.10
2023-10-29T00:42:39.403Z,4.63
2023-10-29T00:45:08.318Z,5.57
2023-10-29T00:47:36.366Z,4.30
2023-10-29T00:50:05.418Z,4.87
2023-10-29T00:52:33.967Z,4.43
2023-10-29T00:55:02.752Z,5.10
2023-10-29T00:57:31.353Z,5.33
2023-10-29T01:00:00.438Z,5.00
2023-10-29T01:02:29.114Z,4.90
2023-10-29T01:04:57.741Z,4.83
2023-10-29T01:07:26.498Z,4.80
2023-10-29T01:09:55.060Z,5.33
2023-10-29T01:12:23.459Z,4.87
2023-10-29T01:14:51.859Z,4.30
2023-10-29T01:17:21.846Z,3.87
2023-10-29T01:19:50.511Z,4.23
2023-10-29T01:22:22.086Z,4.83
2023-10-29T01:24:50.057Z,4.83
2023-10-29T01:27:19.995Z,4.77
2023-10-29T01:29:48.602Z,4.60
2023-10-29T01:32:17.155Z,4.93
2023-10-29T01:34:45.679Z,4.50
2023-10-29T01:37:14.335Z,4.53
2023-10-29T01:39:42.914Z,4.83
2023-10-29T01:42:10.831Z,5.77
2023-10-29T01:44:39.391Z,4.40
2023-10-29T01:47:07.918Z,5.10
2023-10-29T01:49:35.934Z,4.10
2023-10-29T01:52:05.899Z,4.43
2023-10-29T01:54:34.426Z,4.93
2023-10-29T01:57:03.090Z,4.47
2023-10-29T01:59:33.907Z,3.77
2023-10-29T02:02:02.309Z,4.57
2023-10-29T02:04:34.151Z,4.23
2023-10-29T02:07:02.871Z,4.63
2023-10-29T02:09:31.660Z,4.30
2023-10-29T02:12:00.386Z,4.43
2023-10-29T02:14:30.162Z,4.43
2023-10-29T02:17:01.621Z,4.87
2023-10-29T02:19:30.060Z,4.60
2023-10-29T02:21:58.358Z,3.83
2023-10-29T02:24:26.933Z,3.60
2023-10-29T02:26:55.423Z,3.50
2023-10-29T02:29:23.358Z,3.67
2023-10-29T02:31:51.406Z,4.60
2023-10-29T02:34:19.814Z,4.60
2023-10-29T02:36:48.351Z,5.43
2023-10-29T02:39:16.596Z,5.03
2023-10-29T02:41:45.261Z,4.93
2023-10-29T02:44:13.947Z,6.53
2023-10-29T02:46:42.269Z,5.87
2023-10-29T02:49:10.852Z,5.03
2023-10-29T02:51:38.787Z,5.20
2023-10-29T02:54:07.383Z,3.90
2023-10-29T02:56:37.392Z,5.27
2023-10-29T02:59:06.080Z,5.83
2023-10-29T03:01:34.503Z,5.30
2023-10-29T03:04:04.497Z,5.27
2023-10-29T03:06:35.022Z,5.13
2023-10-29T03:09:02.980Z,4.97
2023-10-29T03:11:31.826Z,4.27
2023-10-29T03:14:01.477Z,5.30
2023-10-29T03:18:57.128Z,5.05
2023-10-29T03:21:26.022Z,6.07
2023-10-29T03:23:54.521Z,5.27
2023-10-29T03:26:23.472Z,5.83
2023-10-29T03:28:51.990Z,4.97
2023-10-29T03:31:20.409Z,4.83
2023-10-29T03:33:49.235Z,5.40
2023-10-29T03:36:18.007Z,5.00
2023-10-29T03:38:46.417Z,5.17
2023-10-29T03:41:24.517Z,6.77
2023-10-29T03:43:53.293Z,5.30
2023-10-29T03:46:21.880Z,9.67
2023-10-29T03:48:49.854Z,10.63
2023-10-29T03:51:17.974Z,16.80
2023-10-29T03:53:46.379Z,19.50
2023-10-29T03:56:15.115Z,17.13
2023-10-29T03:58:43.776Z,11.93
2023-10-29T04:01:14.025Z,13.60
2023-10-29T04:03:42.941Z,13.43
2023-10-29T04:06:12.195Z,13.93
2023-10-29T04:08:41.356Z,14.50
2023-10-29T04:11:10.173Z,13.87
2023-10-29T04:13:38.758Z,13.47
2023-10-29T04:16:07.060Z,7.57
2023-10-29T04:18:35.961Z,9.43
2023-10-29T04:21:05.526Z,10.27
2023-10-29T04:23:34.266Z,10.20
2023-10-29T04:26:02.833Z,7.00
2023-10-29T04:28:31.211Z,6.93
2023-10-29T04:31:00.072Z,6.00
2023-10-29T04:33:28.458Z,8.50
2023-10-29T04:35:57.164Z,9.03
2023-10-29T04:38:25.725Z,8.20
2023-10-29T04:40:54.417Z,8.70
2023-10-29T04:43:22.817Z,7.87
2023-10-29T04:45:51.322Z,8.27
2023-10-29T04:48:20.035Z,10.27
2023-10-29T04:50:49.705Z,7.97
2023-10-29T04:53:18.537Z,6.43
2023-10-29T04:55:46.916Z,8.20
2023-10-29T04:58:14.853Z,7.00
2023-10-29T05:00:43.482Z,6.20
2023-10-29T05:03:11.610Z,6.83
2023-10-29T05:05:40.166Z,5.47
2023-10-29T05:08:08.624Z,7.13
2023-10-29T05:10:37.324Z,6.40
2023-10-29T05:13:06.208Z,6.13
2023-10-29T05:15:34.921Z,6.00
2023-10-29T05:18:03.561Z,6.13
2023-10-29T05:20:32.506Z,5.73
2023-10-29T05:23:00.515Z,5.50
2023-10-29T05:25:29.032Z,6.10
2023-10-29T05:27:57.899Z,5.90
2023-10-29T05:30:26.564Z,4.87
2023-10-29T05:32:55.642Z,6.93
2023-10-29T05:35:24.021Z,6.10
2023-10-29T05:37:53.283Z,5.80
2023-10-29T05:40:21.966Z,6.50
2023-10-29T05:42:49.819Z,6.47
2023-10-29T05:45:18.458Z,6.70
2023-10-29T05:47:47.049Z,6.70
2023-10-29T05:50:15.302Z,7.20
2023-10-29T05:52:43.870Z,7.20
2023-10-29T05:55:12.071Z,7.10
2023-10-29T05:57:40.057Z,7.17
2023-10-29T06:00:09.908Z,6.00
2023-10-29T06:02:40.537Z,7.03
2023-10-29T06:05:08.681Z,6.70
2023-10-29T06:07:38.817Z,6.20
2023-10-29T06:10:08.445Z,7.07
2023-10-29T06:12:37.327Z,5.77
2023-10-29T06:15:06.219Z,6.93
2023-10-29T06:17:35.438Z,8.77
2023-10-29T06:20:08.777Z,7.50
2023-10-29T06:22:37.479Z,6.60
2023-10-29T06:25:06.189Z,6.27
2023-10-29T06:27:34.810Z,6.87
2023-10-29T06:30:03.499Z,6.07
2023-10-29T06:32:32.142Z,5.70
2023-10-29T06:35:00.166Z,5.73
2023-10-29T06:37:28.816Z,6.40
2023-10-29T06:39:57.697Z,5.63
2023-10-29T06:42:26.276Z,5.83
2023-10-29T06:44:54.791Z,6.17
2023-10-29T06:47:24.803Z,6.33
2023-10-29T06:49:53.484Z,6.60
2023-10-29T06:52:24.274Z,7.67
2023-10-29T06:54:52.674Z,8.50
2023-10-29T06:57:22.091Z,7.60
2023-10-29T06:59:50.673Z,8.43
2023-10-29T07:02:18.697Z,6.07
2023-10-29T07:04:47.806Z,5.90
2023-10-29T07:07:16.653Z,5.67
2023-10-29T07:09:45.318Z,5.10
2023-10-29T07:12:14.684Z,7.17
2023-10-29T07:14:43.017Z,5.90
2023-10-29T07:17:11.902Z,5.50
2023-10-29T07:19:40.871Z,5.30
2023-10-29T07:24:37.206Z,4.97
2023-10-29T07:29:33.507Z,6.45
2023-10-29T07:32:02.231Z,6.80
2023-10-29T07:34:30.984Z,5.43
2023-10-29T07:36:59.611Z,5.17
2023-10-29T07:39:28.609Z,5.57
2023-10-29T07:44:27.665Z,5.62
2023-10-29T07:46:55.823Z,5.87
2023-10-29T07:49:23.904Z,5.53
2023-10-29T07:51:52.256Z,5.20
2023-10-29T07:54:20.892Z,5.53
2023-10-29T07:56:49.106Z,6.30
2023-10-29T07:59:17.500Z,6.57
2023-10-29T08:01:47.226Z,6.63
2023-10-29T08:04:16.026Z,6.00
2023-10-29T08:06:45.239Z,5.80
2023-10-29T08:09:14.689Z,6.67
2023-10-29T08:11:43.769Z,5.77
2023-10-29T08:14:12.713Z,5.40
2023-10-29T08:16:42.908Z,5.67
2023-10-29T08:19:11.742Z,5.57
2023-10-29T08:21:39.701Z,5.20
2023-10-29T08:24:07.934Z,5.20
2023-10-29T08:26:36.689Z,4.37
2023-10-29T08:29:05.235Z,4.03
2023-10-29T08:31:34.124Z,4.67
2023-10-29T08:34:03.128Z,4.27
2023-10-29T08:36:31.630Z,2.83
2023-10-29T08:39:00.120Z,3.60
2023-10-29T08:41:28.998Z,2.67
2023-10-29T08:43:57.808Z,2.13
2023-10-29T08:46:26.719Z,2.80
2023-10-29T08:48:55.670Z,3.00
2023-10-29T08:51:23.852Z,1.93
2023-10-29T08:53:51.725Z,2.97
2023-10-29T08:56:20.410Z,3.27
2023-10-29T08:58:48.677Z,3.50
2023-10-29T09:01:19.042Z,3.17
2023-10-29T09:03:47.848Z,2.83
2023-10-29T09:06:16.712Z,2.60
2023-10-29T09:08:45.482Z,2.47
2023-10-29T09:11:17.418Z,2.20
2023-10-29T09:13:46.544Z,2.50
2023-10-29T09:16:15.212Z,3.20
2023-10-29T09:18:43.812Z,3.03
2023-10-29T09:21:13.099Z,2.30
2023-10-29T09:23:41.980Z,1.93
2023-10-29T09:28:38.111Z,1.80
2023-10-29T09:31:06.707Z,2.43
2023-10-29T09:33:34.883Z,2.60
2023-10-29T09:36:05.084Z,2.20
2023-10-29T09:38:33.487Z,2.07
2023-10-29T09:41:02.192Z,2.23
2023-10-29T09:43:32.378Z,2.63
2023-10-29T09:46:02.690Z,2.20
2023-10-29T09:48:31.806Z,2.20
2023-10-29T09:51:02.164Z,2.20
2023-10-29T09:53:31.026Z,2.50
2023-10-29T09:56:00.513Z,2.13
2023-10-29T09:58:29.201Z,2.37
2023-10-29T10:00:58.918Z,1.70
2023-10-29T10:03:28.786Z,2.23
2023-10-29T10:05:58.418Z,1.90
2023-10-29T10:08:30.641Z,3.30
2023-10-29T10:11:00.625Z,2.17
2023-10-29T10:13:38.753Z,3.97
2023-10-29T10:16:14.907Z,2.00
2023-10-29T10:18:50.057Z,1.70
2023-10-29T10:23:50.032Z,1.82
2023-10-29T10:26:19.883Z,1.53
2023-10-29T10:28:57.858Z,1.57
2023-10-29T10:31:29.061Z,2.87
2023-10-29T10:34:17.243Z,2.03
2023-10-29T10:36:46.095Z,1.27
2023-10-29T10:39:14.899Z,1.70
2023-10-29T10:41:47.561Z,2.00
2023-10-29T10:44:20.304Z,2.80
2023-10-29T10:46:54.522Z,2.03
2023-10-29T10:49:23.627Z,2.90
2023-10-29T10:51:53.849Z,2.67
2023-10-29T10:54:22.613Z,2.20
2023-10-29T10:56:52.154Z,1.83
2023-10-29T10:59:21.408Z,1.90
2023-10-29T11:01:53.109Z,2.80
2023-10-29T11:04:22.810Z,2.17
2023-10-29T11:06:53.307Z,1.40
2023-10-29T11:09:22.124Z,1.17
2023-10-29T11:11:55.214Z,2.00
2023-10-29T11:14:25.183Z,1.57
2023-10-29T11:16:57.747Z,1.23
2023-10-29T11:19:37.084Z,1.83
2023-10-29T11:22:18.342Z,1.23
2023-10-29T11:24:48.557Z,1.10
2023-10-29T11:27:31.317Z,1.77
2023-10-29T11:30:07.441Z,1.67
2023-10-29T11:32:37.304Z,1.60
2023-10-29T11:35:19.255Z,1.37
2023-10-29T11:37:48.414Z,1.50
2023-10-29T11:40:27.453Z,1.10
2023-10-29T11:42:57.240Z,1.50
2023-10-29T11:45:30.131Z,1.30
2023-10-29T11:48:13.145Z,1.37
2023-10-29T11:50:42.650Z,1.00
2023-10-29T11:53:29.113Z,1.50
2023-10-29T11:55:59.802Z,1.27
2023-10-29T11:58:31.619Z,2.33
2023-10-29T12:01:03.909Z,1.40
2023-10-29T12:03:32.687Z,1.30
2023-10-29T12:08:30.426Z,1.32
2023-10-29T12:10:59.830Z,1.27
2023-10-29T12:13:30.163Z,1.40
2023-10-29T12:15:59.738Z,1.20
2023-10-29T12:18:28.228Z,1.40
2023-10-29T12:21:06.425Z,1.40
2023-10-29T12:23:37.118Z,1.57
2023-10-29T12:26:06.282Z,3.47
2023-10-29T12:28:38.262Z,1.30
2023-10-29T12:31:10.359Z,1.37
2023-10-29T12:33:37.326Z,1.00
2023-10-29T12:38:38.049Z,1.02
2023-10-29T12:41:12.565Z,1.20
2023-10-29T12:43:49.142Z,1.20
2023-10-29T12:46:18.678Z,1.10
2023-10-29T12:49:01.127Z,1.13
2023-10-29T12:51:37.378Z,0.60
2023-10-29T12:54:17.479Z,0.97
2023-10-29T12:56:57.586Z,1.30
2023-10-29T12:59:28.878Z,1.57
2023-10-29T13:01:58.916Z,1.50
2023-10-29T13:04:28.314Z,1.20
2023-10-29T13:06:59.134Z,1.10
2023-10-29T13:09:29.926Z,1.00
2023-10-29T13:11:58.414Z,0.93
2023-10-29T13:14:27.006Z,1.07
2023-10-29T13:16:55.700Z,0.93
2023-10-29T13:19:24.881Z,1.20
2023-10-29T13:21:53.986Z,1.27
2023-10-29T13:24:23.890Z,1.70
2023-10-29T13:26:55.971Z,1.10
2023-10-29T13:29:24.554Z,1.03
2023-10-29T13:31:53.116Z,1.47
2023-10-29T13:34:22.073Z,1.00
2023-10-29T13:39:20.269Z,1.10
2023-10-29T13:41:49.580Z,1.03
2023-10-29T13:44:18.881Z,1.00
2023-10-29T13:46:47.588Z,1.00
2023-10-29T13:49:16.913Z,0.90
2023-10-29T13:51:47.717Z,1.20
2023-10-29T13:54:16.240Z,1.83
2023-10-29T13:56:45.562Z,5.10
2023-10-29T13:59:16.135Z,0.97
2023-10-29T14:01:44.729Z,0.90
2023-10-29T14:04:13.464Z,1.83
2023-10-29T14:06:43.022Z,0.90
2023-10-29T14:09:11.185Z,0.97
2023-10-29T14:11:39.759Z,1.00
2023-10-29T14:14:09.391Z,2.33
2023-10-29T14:16:41.868Z,3.27
2023-10-29T14:19:10.888Z,1.17
2023-10-29T14:21:39.424Z,0.80
2023-10-29T14:24:09.157Z,1.20
2023-10-29T14:26:38.167Z,1.07
2023-10-29T14:29:06.746Z,1.23
2023-10-29T14:31:37.615Z,1.07
2023-10-29T14:34:05.797Z,1.60
2023-10-29T14:36:34.306Z,1.50
2023-10-29T14:39:03.797Z,0.77
2023-10-29T14:41:32.628Z,0.83
2023-10-29T14:44:01.084Z,1.13
2023-10-29T14:46:29.498Z,0.90
2023-10-29T14:48:57.850Z,0.70
2023-10-29T14:51:26.335Z,1.10
2023-10-29T14:53:54.883Z,0.70
2023-10-29T14:56:23.418Z,1.67
2023-10-29T14:58:52.310Z,2.70
2023-10-29T15:01:22.776Z,4.40
2023-10-29T15:03:51.154Z,3.33
2023-10-29T15:06:20.332Z,15.27
2023-10-29T15:08:51.537Z,12.50
2023-10-29T15:11:33.821Z,8.90
2023-10-29T15:13:49.804Z,7.30
2023-10-29T15:16:18.145Z,6.17
2023-10-29T15:18:46.865Z,6.47
2023-10-29T15:21:16.965Z,5.53
2023-10-29T15:23:45.695Z,4.43
2023-10-29T15:26:19.221Z,4.63
2023-10-29T15:28:48.110Z,3.60
2023-10-29T15:31:16.618Z,3.87
2023-10-29T15:33:45.174Z,3.73
2023-10-29T15:36:14.170Z,3.23
2023-10-29T15:41:12.159Z,3.00
2023-10-29T15:43:40.602Z,4.17
2023-10-29T15:46:10.864Z,4.70
2023-10-29T15:48:39.122Z,5.33
2023-10-29T15:51:08.946Z,4.93
2023-10-29T15:53:37.505Z,4.43
2023-10-29T15:56:09.845Z,4.77
2023-10-29T15:58:38.389Z,4.87
2023-10-29T16:01:07.004Z,4.53
2023-10-29T16:03:35.435Z,5.30
2023-10-29T16:06:10.493Z,4.70
2023-10-29T16:08:40.720Z,4.27
2023-10-29T16:11:10.021Z,4.70
2023-10-29T16:13:38.841Z,3.40
2023-10-29T16:16:08.068Z,4.43
2023-10-29T16:18:36.791Z,5.87
2023-10-29T16:21:05.816Z,9.17
2023-10-29T16:23:34.563Z,6.90
2023-10-29T16:26:03.157Z,6.60
2023-10-29T16:28:31.605Z,6.07
2023-10-29T16:31:00.086Z,7.60
2023-10-29T16:33:28.187Z,6.63
2023-10-29T16:36:00.263Z,5.97
2023-10-29T16:38:30.448Z,5.63
2023-10-29T16:41:00.999Z,4.50
2023-10-29T16:43:30.077Z,5.63
2023-10-29T16:45:58.897Z,8.90
2023-10-29T16:48:27.174Z,11.50
2023-10-29T16:51:03.244Z,12.33
2023-10-29T16:53:27.439Z,14.73
2023-10-29T16:55:55.882Z,11.20
2023-10-29T16:58:24.746Z,14.97
2023-10-29T17:00:53.588Z,11.73
2023-10-29T17:03:22.102Z,14.97
2023-10-29T17:05:50.270Z,20.37
2023-10-29T17:08:19.105Z,13.73
2023-10-29T17:10:47.476Z,8.67
2023-10-29T17:13:17.973Z,7.43
2023-10-29T17:15:46.516Z,6.93
2023-10-29T17:18:15.632Z,7.90
2023-10-29T17:20:45.316Z,8.30
2023-10-29T17:23:13.408Z,7.23
2023-10-29T17:25:41.854Z,10.60
2023-10-29T17:28:10.350Z,10.37
2023-10-29T17:30:39.457Z,9.57
2023-10-29T17:35:37.732Z,11.30
2023-10-29T17:38:06.320Z,8.13
2023-10-29T17:40:34.928Z,6.07
2023-10-29T17:43:03.615Z,6.50
2023-10-29T17:45:33.653Z,5.83
2023-10-29T17:48:03.397Z,7.13
2023-10-29T17:50:31.955Z,7.80
2023-10-29T17:53:02.332Z,8.60
2023-10-29T17:55:30.904Z,8.47
2023-10-29T17:58:01.211Z,8.20
2023-10-29T18:00:30.309Z,7.40
2023-10-29T18:02:59.110Z,7.00
2023-10-29T18:05:28.436Z,6.87
2023-10-29T18:12:54.371Z,11.60
2023-10-29T18:15:22.804Z,9.27
2023-10-29T18:17:51.586Z,11.13
2023-10-29T18:20:21.926Z,11.33
2023-10-29T18:22:51.278Z,12.80
2023-10-29T18:25:20.614Z,12.50
2023-10-29T18:27:49.261Z,9.70
2023-10-29T18:30:18.064Z,9.10
2023-10-29T18:32:46.665Z,7.77
2023-10-29T18:35:15.306Z,7.37
2023-10-29T18:37:45.739Z,7.97
2023-10-29T18:40:14.632Z,4.87
2023-10-29T18:42:42.930Z,5.23
2023-10-29T18:45:11.142Z,5.10
2023-10-29T18:47:39.415Z,5.70
2023-10-29T18:50:07.883Z,6.63
2023-10-29T18:52:36.102Z,7.03
2023-10-29T18:55:04.949Z,7.70
2023-10-29T18:57:33.346Z,6.03
2023-10-29T19:00:02.104Z,6.30
2023-10-29T19:02:30.623Z,5.57
2023-10-29T19:04:59.446Z,3.97
2023-10-29T19:07:27.334Z,3.60
2023-10-29T19:09:55.976Z,3.63
2023-10-29T19:12:25.208Z,3.17
2023-10-29T19:14:53.763Z,4.17
2023-10-29T19:17:22.568Z,2.37
2023-10-29T19:19:51.364Z,3.27
2023-10-29T19:22:19.948Z,2.60
2023-10-29T19:24:48.641Z,2.93
2023-10-29T19:27:16.741Z,3.10
2023-10-29T19:29:45.702Z,3.93
2023-10-29T19:32:14.386Z,3.57
2023-10-29T19:34:43.493Z,3.67
2023-10-29T19:37:13.561Z,3.07
2023-10-29T19:39:43.096Z,3.93
2023-10-29T19:42:12.650Z,3.70
2023-10-29T19:44:42.093Z,3.33
2023-10-29T19:49:39.397Z,3.62
2023-10-29T19:52:09.681Z,4.00
2023-10-29T19:54:37.860Z,3.93
2023-10-29T19:57:06.791Z,3.13
2023-10-29T19:59:35.231Z,3.33
2023-10-29T20:02:03.974Z,4.10
2023-10-29T20:04:32.936Z,3.23
2023-10-29T20:07:01.724Z,4.20
2023-10-29T20:09:31.072Z,3.97
2023-10-29T20:16:56.564Z,4.20
2023-10-29T20:19:25.256Z,3.23
2023-10-29T20:21:53.818Z,5.77
2023-10-29T20:24:22.677Z,5.30
2023-10-29T20:26:51.318Z,4.60
2023-10-29T20:29:19.194Z,4.73
2023-10-29T20:31:49.401Z,6.27
2023-10-29T20:34:17.578Z,7.93
2023-10-29T20:36:48.926Z,7.20
2023-10-29T20:39:17.854Z,8.93
2023-10-29T20:41:46.502Z,14.57
2023-10-29T20:44:15.076Z,9.00
2023-10-29T20:46:43.705Z,9.40
2023-10-29T20:49:14.098Z,8.83
2023-10-29T20:51:42.453Z,8.20
2023-10-29T20:54:11.606Z,7.20
2023-10-29T20:56:40.237Z,5.83
2023-10-29T20:59:08.951Z,7.37
2023-10-29T21:01:38.193Z,6.67
2023-10-29T21:04:06.291Z,6.53
2023-10-29T21:06:35.288Z,9.67
2023-10-29T21:09:05.855Z,8.50
2023-10-29T21:11:34.444Z,7.17
2023-10-29T21:14:02.700Z,7.77
2023-10-29T21:16:31.886Z,7.47
2023-10-29T21:21:27.829Z,7.00
2023-10-29T21:23:56.336Z,7.90
2023-10-29T21:26:25.021Z,10.73
2023-10-29T21:28:54.132Z,7.93
2023-10-29T21:31:23.119Z,8.03
2023-10-29T21:33:51.576Z,11.47
2023-10-29T21:36:20.089Z,7.87
2023-10-29T21:38:48.750Z,8.50
2023-10-29T21:41:17.568Z,8.70
2023-10-29T21:43:47.200Z,9.00
2023-10-29T21:46:16.581Z,7.63
2023-10-29T21:48:45.071Z,7.47
2023-10-29T21:51:14.883Z,5.50
2023-10-29T21:53:43.563Z,9.30
2023-10-29T21:56:12.092Z,7.70
2023-10-29T21:58:40.802Z,7.67
2023-10-29T22:01:10.922Z,8.33
2023-10-29T22:03:39.938Z,7.73
2023-10-29T22:06:08.821Z,7.70
2023-10-29T22:08:40.016Z,7.43
2023-10-29T22:11:09.318Z,7.30
2023-10-29T22:13:45.733Z,7.57
2023-10-29T22:16:15.722Z,7.63
2023-10-29T22:18:44.788Z,7.47
2023-10-29T22:21:14.433Z,7.60
2023-10-29T22:23:43.229Z,7.60
2023-10-29T22:26:12.037Z,6.80
2023-10-29T22:28:40.814Z,13.40
2023-10-29T22:31:09.514Z,9.10
2023-10-29T22:33:38.361Z,8.20
2023-10-29T22:36:07.988Z,7.80
2023-10-29T22:38:36.270Z,8.33
2023-10-29T22:41:05.971Z,9.00
2023-10-29T22:43:34.504Z,8.30
2023-10-29T22:46:03.328Z,7.43
2023-10-29T22:48:32.546Z,7.00
2023-10-29T22:51:04.750Z,7.20
2023-10-29T22:53:33.174Z,7.20
2023-10-29T22:56:04.428Z,7.17
2023-10-29T22:58:32.900Z,6.13
2023-10-29T23:01:01.810Z,6.33
2023-10-29T23:03:30.495Z,5.97
2023-10-29T23:06:05.896Z,5.97
2023-10-29T23:08:34.908Z,6.37
2023-10-29T23:11:04.575Z,7.90
2023-10-29T23:15:59.364Z,8.58
2023-10-29T23:18:28.704Z,7.50
2023-10-29T23:20:57.215Z,8.33
2023-10-29T23:23:26.645Z,5.73
2023-10-29T23:25:55.746Z,9.27
2023-10-29T23:28:36.693Z,7.60
2023-10-29T23:30:54.400Z,7.67
2023-10-29T23:33:23.045Z,8.20
2023-10-29T23:35:53.572Z,8.33
2023-10-29T23:38:22.245Z,7.13
2023-10-29T23:40:51.046Z,7.93
2023-10-29T23:43:19.534Z,8.70
2023-10-29T23:45:47.617Z,7.63
2023-10-29T23:48:15.792Z,7.87
2023-10-29T23:50:44.339Z,7.87
2023-10-29T23:53:13.157Z,8.13
2023-10-29T23:55:41.491Z,7.40
2023-10-29T23:58:10.827Z,7.73
